Flight Track Log - Related Links

Times and Time Zones

All times are in EDT time to prevent confusion due to time zone crossing. See the DAL6197 flight status page for this flight to view local times or setup timezone preferences in your user account.

Time Position Orientation Groundspeed Altitude Reporting Facility
EDT Latitude Longitude Course Direction KTS MPH feet Rate Location/Type
Fri 12:13:33 PM 42.9333 -78.7500 115° Southeast 140 161 2,200  Level Buffalo TRACON
Fri 12:15:00 PM 42.8613 -78.5735 119° Southeast  Level Estimated
Fri 12:16:09 PM 42.8786 -78.5914 119° Southeast 244 281 8,400  Level Cleveland Center
Fri 12:17:09 PM 42.8744 -78.4669 93° East 279 321 11,100 2,350 Climbing Cleveland Center
Fri 12:18:09 PM 42.8678 -78.3339 94° East 317 365 13,100 1,800 Climbing Cleveland Center
Fri 12:19:09 PM 42.8586 -78.1956 95° East 350 403 14,700 1,600 Climbing Cleveland Center
Fri 12:20:09 PM 42.8511 -78.0400 94° East 385 443 16,300 1,700 Climbing Cleveland Center
Fri 12:21:09 PM 42.8414 -77.8789 95° East 412 474 18,100 2,250 Climbing Cleveland Center
Fri 12:22:09 PM 42.8353 -77.7178 93° East 425 489 20,800 2,200 Climbing Cleveland Center
Fri 12:23:09 PM 42.8311 -77.5567 92° East 425 489 22,500 1,100 Climbing Cleveland Center
Fri 12:24:09 PM 42.8286 -77.3839 91° East 425 489 23,000 443 Climbing Cleveland Center
Fri 12:25:38 PM 42.8233 -77.1175 91° East 458 527 23,600 644 Climbing Boston Center
Fri 12:26:38 PM 42.8011 -76.9431 100° East 476 548 24,600 992 Climbing Boston Center
Fri 12:27:39 PM 42.7358 -76.7969 121° Southeast 447 514 25,600 1,008 Climbing Boston Center
Fri 12:28:37 PM 42.6706 -76.6453 120° Southeast 453 521 26,600 712 Climbing Boston Center
Fri 12:29:37 PM 42.6375 -76.4708 104° East 458 527 27,000 198 Climbing Boston Center
Fri 12:30:38 PM 42.6125 -76.2858 100° East 478 550 27,000  Level Boston Center
Fri 12:31:38 PM 42.5908 -76.1208 100° East 486 559 27,000  Level Boston Center
Fri 12:32:39 PM 42.5633 -75.9331 101° East 492 566 27,000 -101 Level Boston Center
Fri 12:33:37 PM 42.5361 -75.7286 100° East 498 573 26,800 -610 Descending Boston Center
Fri 12:34:37 PM 42.5100 -75.5497 101° East 498 573 25,800 -992 Descending Boston Center
Fri 12:35:38 PM 42.4833 -75.3711 101° East 487 560 24,800 -992 Descending Boston Center
Fri 12:36:38 PM 42.4442 -75.1861 106° East 487 560 23,800 -992 Descending Boston Center
Fri 12:37:39 PM 42.3856 -75.0233 116° Southeast 494 568 22,800 -992 Descending Boston Center
Fri 12:38:39 PM 42.3267 -74.8608 116° Southeast 488 562 21,800 -1,017 Descending Boston Center
Fri 12:39:37 PM 42.2714 -74.7128 117° Southeast 470 541 20,800 -1,017 Descending Boston Center
Fri 12:40:37 PM 42.2200 -74.5708 116° Southeast 440 506 19,800 -893 Descending Boston Center
Fri 12:41:38 PM 42.1661 -74.4289 117° Southeast 426 490 19,000 -393 Descending Boston Center
Fri 12:42:39 PM 42.1103 -74.2844 117° Southeast 434 499 19,000  Level Boston Center
Fri 12:43:37 PM 42.0639 -74.1850 122° Southeast 392 451 19,000  Level Boston Center
Fri 12:44:37 PM 42.0092 -74.0775 124° Southeast 351 404 19,000  Level Boston Center
Fri 12:45:39 PM 41.9483 -73.9558 124° Southeast 351 404 19,000  Level Boston Center
Fri 12:46:39 PM 41.9103 -73.8461 115° Southeast 356 410 19,000  Level Boston Center
Fri 12:47:37 PM 41.9556 -73.7075 66° East 317 365 19,000  Level Boston Center
Fri 12:48:37 PM 41.9547 -73.5931 91° East 329 379 19,000 -347 Level Boston Center
Fri 12:49:38 PM 41.8817 -73.5972 182° South 207 238 18,300 -1,082 Descending Boston Center
Fri 12:50:39 PM 41.8250 -73.6464 213° Southwest 221 254 16,800 -1,412 Descending Boston Center
Fri 12:51:37 PM 41.7494 -73.6867 202° Southwest 258 297 15,500 -1,261 Descending Boston Center
Fri 12:52:38 PM 41.6886 -73.7217 203° Southwest 270 311 14,300 -1,230 Descending Boston Center
Fri 12:53:39 PM 41.6131 -73.7700 206° Southwest 275 316 13,000 -1,210 Descending Boston Center
Fri 12:54:37 PM 41.5544 -73.8078 206° Southwest 270 311 11,900 -1,103 Descending Boston Center
Fri 12:55:06 PM 41.5167 -73.8333 207° Southwest 254 292 11,400 -1,012 Descending New York TRACON
Fri 12:56:00 PM 41.4667 -73.8667 207° Southwest 240 276 10,500 -1,000 Descending New York TRACON
Fri 12:57:06 PM 41.3833 -73.8333 163° South 281 323 9,400 -905 Descending New York TRACON
Fri 12:58:06 PM 41.3167 -73.7833 151° Southeast 281 323 8,600 -650 Descending New York TRACON
Fri 12:59:06 PM 41.2667 -73.7167 135° Southeast 276 318 8,100 -421 Descending New York TRACON
Fri 01:00:00 PM 41.2000 -73.6833 159° South 268 308 7,800 -1,474 Descending New York TRACON
Fri 01:01:00 PM 41.1500 -73.6333 143° Southeast 247 284 5,300 -1,850 Descending New York TRACON
Fri 01:02:00 PM 41.0833 -73.6333 180° South 228 262 4,100 -600 Descending New York TRACON
Fri 01:03:00 PM 41.0333 -73.6667 207° Southwest 224 258 4,100 -238 Level New York TRACON
Fri 01:04:06 PM 40.9667 -73.7167 210° Southwest 218 251 3,600 -476 Descending New York TRACON
Fri 01:05:06 PM 40.9167 -73.7667 217° Southwest 219 252 3,100 -700 Descending New York TRACON
Fri 01:06:06 PM 40.8833 -73.8000 217° Southwest 167 192 2,200 -750 Descending New York TRACON
Fri 01:07:06 PM 40.8500 -73.8167 201° Southwest 107 123 1,600 -600 Descending New York TRACON
Fri 01:08:06 PM 40.8167 -73.8333 201° Southwest 109 125 1,000 -600 Descending New York TRACON
Fri 01:09:06 PM 40.8000 -73.8667 237° Southwest 124 143 400 -600 Descending New York TRACON

Login

Don't have an account? Register now (free) for customized features, flight alerts, and more!